Arcata, California
Current Conditions -  °F | °C
As of 8:53 AM on Friday 31 Oct 2014 (Local Time) from KACV Reporting Station
Few Clouds Few Clouds  
Wind Chill: 51°   Ceiling: Unl
Heat Index: 51°   Visibility: 9mi
Dew Point: 50°   Wind: 5mph
Humidity: 96%   Direction: 130°SE
Pressure: 29.87"   Gusts: NA
Location:  40.87°N, 124.08°W
Report Text: KACV 311553Z AUTO 13004KT 9SM FEW100 11/10 A2987 RMK AO2 SLP119 T01060100
Loading
Personal Weather Stations






























Interactive Weather Map
Tropical Storm Tracking
New forecast layout! Learn more

10-Day Weather Forecast

Advertisements
Track Severe Weather on mobile